Time;durP1;ratioP1;P1;durP2;ratioP2;P2;SDS_P1;SDS_P2;PMS_P1;PMS_P2;Temp;Humidity;BMP_temperature;BMP_pressure;BME280_temperature;BME280_humidity;BME280_pressure;Samples;Min_cycle;Max_cycle;Signal;HPM_P1;HPM_P2
2022/07/06 05:14:29;;;;;;;0.20;0.20;;;;;;;14.27;64.55;102686.72;5050732;27;113426;-35
2022/07/06 05:16:55;;;;;;;1.20;0.40;;;;;;;14.23;65.74;102693.31;5054388;27;96457;-35
2022/07/06 05:19:20;;;;;;;2.13;0.43;;;;;;;14.21;64.70;102693.38;5054512;27;109799;-35
2022/07/06 05:21:45;;;;;;;1.33;0.50;;;;;;;14.24;65.24;102695.94;5054940;27;101395;-35
2022/07/06 05:24:11;;;;;;;1.10;0.50;;;;;;;14.23;64.95;102699.63;5053713;27;124956;-35
2022/07/06 05:26:36;;;;;;;3.63;0.50;;;;;;;14.27;64.59;102703.09;5055111;27;96672;-35
2022/07/06 05:29:02;;;;;;;1.33;0.47;;;;;;;14.30;64.71;102702.97;5054821;27;99249;-35
2022/07/06 05:31:27;;;;;;;1.52;0.52;;;;;;;14.38;64.26;102699.88;5054416;27;105954;-35
2022/07/06 05:33:52;;;;;;;1.23;0.57;;;;;;;14.45;65.05;102691.31;5054592;27;98073;-35
2022/07/06 05:36:18;;;;;;;1.52;0.55;;;;;;;14.58;63.74;102705.25;5054680;27;96585;-35
2022/07/06 05:38:43;;;;;;;0.65;0.45;;;;;;;14.64;63.40;102698.63;5054674;27;96880;-35
2022/07/06 05:41:09;;;;;;;0.50;0.40;;;;;;;14.80;63.41;102699.66;5054164;27;97857;-35
2022/07/06 05:43:37;;;;;;;0.40;0.25;;;;;;;14.90;63.49;102693.69;5054624;27;96855;-35
2022/07/06 05:46:03;;;;;;;0.30;0.30;;;;;;;15.04;63.68;102699.34;5054578;27;96409;-35
2022/07/06 05:51:13;;;;;;;2.47;0.38;;;;;;;15.21;63.24;102685.75;5054508;27;97054;-35
2022/07/06 05:53:38;;;;;;;0.85;0.43;;;;;;;15.37;63.15;102693.13;5054028;27;97913;-35
2022/07/06 05:56:04;;;;;;;0.63;0.35;;;;;;;15.49;62.32;102695.19;5051941;27;122661;-35
2022/07/06 05:58:29;;;;;;;2.15;0.45;;;;;;;15.57;62.61;102682.03;5054489;27;96692;-35
2022/07/06 06:00:54;;;;;;;0.22;0.13;;;;;;;15.66;62.20;102687.00;5053996;27;98755;-35
2022/07/06 06:03:20;;;;;;;0.60;0.28;;;;;;;15.78;62.01;102685.50;5054091;27;99051;-35
2022/07/06 06:05:45;;;;;;;1.10;0.30;;;;;;;15.91;61.38;102699.38;5052348;27;97621;-35
2022/07/06 06:08:10;;;;;;;1.20;0.30;;;;;;;15.99;61.47;102694.38;5054084;27;96729;-35
2022/07/06 06:10:36;;;;;;;0.57;0.22;;;;;;;16.02;60.86;102683.28;5053201;27;127020;-35
2022/07/06 06:13:01;;;;;;;1.38;0.30;;;;;;;16.08;60.44;102691.13;5052710;27;115572;-35
2022/07/06 06:15:26;;;;;;;0.88;0.20;;;;;;;16.19;59.86;102698.75;5053823;27;96847;-35
2022/07/06 06:17:52;;;;;;;0.77;0.25;;;;;;;16.30;60.22;102693.56;5054219;27;96812;-35
2022/07/06 06:20:17;;;;;;;1.95;0.50;;;;;;;16.41;60.01;102687.47;5053830;27;99643;-35
2022/07/06 06:22:53;;;;;;;1.45;0.40;;;;;;;16.50;59.55;102686.97;5054324;27;97838;-35
2022/07/06 06:25:21;;;;;;;0.60;0.20;;;;;;;16.62;59.01;102687.22;5052726;27;96596;-35
2022/07/06 06:27:46;;;;;;;0.38;0.20;;;;;;;16.76;59.03;102696.41;5052608;27;96937;-35
2022/07/06 06:30:13;;;;;;;0.28;0.20;;;;;;;16.79;58.97;102689.03;5052792;27;110547;-35
2022/07/06 06:32:38;;;;;;;0.35;0.30;;;;;;;16.92;58.99;102703.72;5051930;27;100848;-35
2022/07/06 06:35:05;;;;;;;0.70;0.40;;;;;;;16.94;58.43;102699.06;5053999;27;96600;-35
2022/07/06 06:37:30;;;;;;;2.65;0.45;;;;;;;17.10;58.28;102707.25;5052279;27;96908;-35
2022/07/06 06:39:56;;;;;;;0.45;0.30;;;;;;;17.16;58.24;102705.03;5053441;27;99299;-35
2022/07/06 06:42:21;;;;;;;0.38;0.13;;;;;;;17.28;57.95;102703.44;5053461;27;102430;-35
2022/07/06 06:44:46;;;;;;;1.85;0.10;;;;;;;17.37;57.66;102699.22;5051680;27;106093;-35
2022/07/06 06:47:12;;;;;;;0.63;0.30;;;;;;;17.45;56.81;102696.00;5054243;27;96416;-35
2022/07/06 06:49:37;;;;;;;0.70;0.20;;;;;;;17.60;56.36;102700.56;5052703;27;120621;-35
2022/07/06 06:52:02;;;;;;;0.98;0.22;;;;;;;17.74;56.84;102708.81;5053304;27;103199;-35
2022/07/06 06:54:28;;;;;;;1.02;0.30;;;;;;;17.93;56.38;102710.44;5052996;27;96665;-35
2022/07/06 06:56:53;;;;;;;1.27;0.35;;;;;;;17.99;56.00;102699.06;5053511;27;96882;-35
2022/07/06 06:59:18;;;;;;;0.13;0.10;;;;;;;18.11;55.92;102709.25;5052292;27;127243;-35
2022/07/06 07:01:44;;;;;;;1.45;0.22;;;;;;;18.21;54.29;102704.06;5053040;27;99002;-35
2022/07/06 07:04:09;;;;;;;2.83;0.70;;;;;;;18.24;55.11;102698.41;5053735;27;96615;-35
2022/07/06 07:06:35;;;;;;;0.40;0.30;;;;;;;18.36;54.63;102704.97;5052912;27;110039;-35
2022/07/06 07:09:00;;;;;;;0.70;0.20;;;;;;;18.43;53.83;102707.19;5052806;27;111823;-35
2022/07/06 07:11:25;;;;;;;0.43;0.15;;;;;;;18.48;54.15;102708.78;5052135;27;98924;-35
2022/07/06 07:13:51;;;;;;;2.03;0.30;;;;;;;18.57;54.49;102708.16;5052793;27;96653;-35
2022/07/06 07:16:16;;;;;;;0.52;0.30;;;;;;;18.57;53.61;102708.16;5053185;27;96748;-35
2022/07/06 07:18:41;;;;;;;0.82;0.20;;;;;;;18.71;53.72;102701.75;5052437;27;99236;-35
2022/07/06 07:21:07;;;;;;;0.10;0.10;;;;;;;18.86;53.82;102706.25;5052318;27;118734;-35
2022/07/06 07:23:32;;;;;;;0.20;0.08;;;;;;;18.96;53.71;102699.16;5052524;27;109159;-35
2022/07/06 07:25:57;;;;;;;0.70;0.20;;;;;;;19.13;52.49;102713.63;5053059;27;96755;-35
2022/07/06 07:28:22;;;;;;;0.35;0.30;;;;;;;19.09;51.72;102705.59;5052246;27;110147;-35
2022/07/06 07:30:48;;;;;;;0.85;0.35;;;;;;;19.26;52.10;102703.56;5051926;27;126232;-35
2022/07/06 07:33:13;;;;;;;0.10;0.10;;;;;;;19.28;51.62;102687.81;5052863;27;96408;-35
2022/07/06 07:35:39;;;;;;;0.38;0.20;;;;;;;19.30;51.85;102691.34;5052795;27;107477;-35
2022/07/06 07:38:04;;;;;;;0.38;0.20;;;;;;;19.42;51.88;102693.25;5052086;27;121152;-35
2022/07/06 07:40:30;;;;;;;0.10;0.10;;;;;;;19.61;50.99;102700.19;5052790;27;97971;-35
2022/07/06 07:42:55;;;;;;;0.55;0.30;;;;;;;19.68;50.42;102696.94;5052260;27;96607;-35
2022/07/06 07:45:20;;;;;;;0.45;0.20;;;;;;;19.77;49.92;102697.28;5052391;27;96772;-35
2022/07/06 07:47:46;;;;;;;0.20;0.20;;;;;;;;;;5052620;27;97862;-35
2022/07/06 07:50:12;;;;;;;0.55;0.10;;;;;;;19.98;50.17;102694.88;5052725;27;97782;-35
2022/07/06 07:52:37;;;;;;;0.13;0.10;;;;;;;19.93;48.92;102686.97;5052977;27;96473;-35
2022/07/06 07:55:03;;;;;;;0.57;0.20;;;;;;;20.02;48.34;102691.81;5052183;27;96879;-35
2022/07/06 07:57:28;;;;;;;2.80;0.35;;;;;;;19.98;49.61;102679.25;5050915;27;101878;-35
2022/07/06 07:59:54;;;;;;;0.20;0.10;;;;;;;20.04;48.65;102686.16;5051573;27;126148;-35
2022/07/06 08:02:19;;;;;;;0.10;0.10;;;;;;;20.06;48.60;102698.81;5052680;27;96598;-35
2022/07/06 08:04:44;;;;;;;0.43;0.10;;;;;;;20.06;45.91;102679.56;5050444;27;117663;-35
2022/07/06 08:07:10;;;;;;;3.50;0.40;;;;;;;20.18;48.35;102688.78;5051482;27;108407;-35
2022/07/06 08:09:35;;;;;;;0.20;0.10;;;;;;;20.19;47.27;102682.31;5052196;27;99571;-35
2022/07/06 08:12:00;;;;;;;0.10;0.10;;;;;;;20.25;46.44;102687.34;5052210;27;96541;-35
2022/07/06 08:14:26;;;;;;;0.30;0.15;;;;;;;20.32;45.93;102677.66;5051929;27;96904;-36
2022/07/06 08:16:51;;;;;;;0.30;0.13;;;;;;;20.45;46.01;102668.47;5052424;27;97449;-35
2022/07/06 08:19:17;;;;;;;0.10;0.10;;;;;;;20.60;46.83;102683.03;5052150;27;97281;-35
2022/07/06 08:21:43;;;;;;;1.65;0.30;;;;;;;20.76;46.22;102680.84;5052270;27;96819;-35
2022/07/06 08:24:09;;;;;;;1.70;0.30;;;;;;;20.92;46.77;102677.81;5052558;27;96828;-35
2022/07/06 08:26:34;;;;;;;0.75;0.52;;;;;;;20.95;46.18;102684.00;5052185;27;97271;-35
2022/07/06 08:29:00;;;;;;;0.50;0.13;;;;;;;20.90;43.95;102683.44;5052000;27;97798;-35
2022/07/06 08:31:27;;;;;;;0.08;0.08;;;;;;;20.88;46.09;102679.94;5051780;27;96494;-35
2022/07/06 08:33:53;;;;;;;1.00;0.20;;;;;;;20.90;45.40;102672.41;5050582;27;96863;-35
2022/07/06 08:36:19;;;;;;;0.63;0.20;;;;;;;20.98;44.84;102686.50;5053260;27;101397;-35
2022/07/06 08:38:44;;;;;;;0.10;0.10;;;;;;;20.77;43.98;102671.63;5054205;27;100537;-35
2022/07/06 08:41:11;;;;;;;2.45;0.20;;;;;;;20.61;45.73;102676.50;5055552;27;102880;-35
2022/07/06 08:43:36;;;;;;;1.10;0.35;;;;;;;20.41;44.48;102658.72;5053748;27;97464;-35
2022/07/06 08:46:02;;;;;;;0.30;0.30;;;;;;;20.36;46.27;102675.56;5053992;27;101305;-35
2022/07/06 08:48:35;;;;;;;0.28;0.20;;;;;;;20.36;46.03;102670.94;5054192;27;100963;-35
2022/07/06 08:51:01;;;;;;;1.38;0.30;;;;;;;20.29;46.04;102671.50;5054007;27;96595;-35
2022/07/06 08:53:27;;;;;;;0.75;0.20;;;;;;;20.22;46.31;102667.44;5055663;27;96803;-35
2022/07/06 08:55:53;;;;;;;0.82;0.20;;;;;;;20.18;45.72;102674.16;5053119;27;101495;-35
2022/07/06 08:58:19;;;;;;;0.35;0.20;;;;;;;20.10;45.79;102670.09;5055281;27;97736;-35
2022/07/06 09:00:44;;;;;;;0.03;0.03;;;;;;;20.07;45.59;102670.34;5053958;27;96520;-35
2022/07/06 09:03:12;;;;;;;0.10;0.08;;;;;;;20.01;45.72;102665.25;5055375;27;96761;-35
2022/07/06 09:05:39;;;;;;;0.43;0.20;;;;;;;20.08;46.86;102679.47;5053630;27;101168;-35
2022/07/06 09:08:05;;;;;;;0.10;0.10;;;;;;;20.20;46.44;102681.31;5053654;27;101634;-35
2022/07/06 09:10:30;;;;;;;0.20;0.20;;;;;;;20.28;47.12;102680.75;5054774;27;96657;-35
2022/07/06 09:13:07;;;;;;;0.50;0.20;;;;;;;20.18;44.15;102663.16;5055439;27;99499;-35
2022/07/06 09:15:33;;;;;;;1.15;0.35;;;;;;;20.22;47.08;102672.97;5054616;27;97858;-35
2022/07/06 09:17:59;;;;;;;0.32;0.30;;;;;;;20.28;46.43;102681.63;5053411;27;101121;-35
2022/07/06 09:20:25;;;;;;;0.93;0.30;;;;;;;20.30;44.11;102670.50;5054438;27;101103;-35
2022/07/06 09:22:57;;;;;;;4.45;0.38;;;;;;;20.37;44.20;102678.19;5053409;27;97888;-35
2022/07/06 09:25:23;;;;;;;2.33;0.38;;;;;;;20.44;44.93;102675.88;5053523;27;100793;-35
2022/07/06 09:27:54;;;;;;;0.77;0.17;;;;;;;20.64;44.46;102682.69;5053360;27;101153;-35
2022/07/06 09:30:19;;;;;;;0.40;0.20;;;;;;;20.77;44.12;102678.00;5053439;27;96569;-35
2022/07/06 09:32:47;;;;;;;0.47;0.22;;;;;;;20.82;44.80;102679.53;5054793;27;96890;-35
2022/07/06 09:35:26;;;;;;;0.38;0.20;;;;;;;20.89;44.05;102689.09;5053182;27;100965;-35
2022/07/06 09:38:08;;;;;;;1.08;0.20;;;;;;;20.83;43.26;102682.16;5053371;27;100944;-35
2022/07/06 09:40:41;;;;;;;0.22;0.13;;;;;;;20.76;44.04;102676.25;5053439;27;96654;-35
2022/07/06 09:43:22;;;;;;;0.93;0.22;;;;;;;20.86;44.28;102689.31;5054571;27;96777;-35
2022/07/06 09:45:56;;;;;;;0.30;0.25;;;;;;;20.91;44.05;102698.13;5052241;27;100946;-35
2022/07/06 09:48:27;;;;;;;0.20;0.17;;;;;;;20.96;44.87;102698.63;5052392;27;101064;-35
2022/07/06 09:50:58;;;;;;;2.20;0.20;;;;;;;21.00;44.26;102692.78;5053072;27;96696;-35
2022/07/06 09:53:27;;;;;;;0.60;0.22;;;;;;;21.14;43.76;102707.34;5052871;27;96854;-35
2022/07/06 09:55:58;;;;;;;0.45;0.30;;;;;;;21.15;44.38;102709.13;5053638;27;113659;-35
2022/07/06 09:58:24;;;;;;;0.33;0.20;;;;;;;21.06;44.81;102707.94;5054075;27;99120;-35
2022/07/06 10:00:49;;;;;;;0.75;0.40;;;;;;;20.96;45.22;102699.50;5054539;27;96541;-35
2022/07/06 10:03:16;;;;;;;3.10;0.38;;;;;;;21.01;44.98;102699.16;5054521;27;96816;-35
2022/07/06 10:05:46;;;;;;;0.85;0.20;;;;;;;21.11;44.88;102691.06;5052822;27;101228;-35
2022/07/06 10:08:12;;;;;;;1.80;0.57;;;;;;;21.31;44.50;102695.03;5052734;27;100720;-35
2022/07/06 10:10:39;;;;;;;0.90;0.30;;;;;;;21.54;43.18;102696.03;5054076;27;96588;-35
2022/07/06 10:13:06;;;;;;;1.00;0.30;;;;;;;21.70;42.49;102692.94;5052571;27;96975;-35
2022/07/06 10:15:33;;;;;;;0.82;0.30;;;;;;;21.71;42.77;102686.41;5052239;27;100957;-35
2022/07/06 10:18:00;;;;;;;0.82;0.40;;;;;;;21.84;41.48;102684.44;5052470;27;100749;-35
2022/07/06 10:20:30;;;;;;;0.38;0.20;;;;;;;22.10;42.14;102678.69;5052699;27;98767;-35
2022/07/06 10:22:59;;;;;;;0.45;0.20;;;;;;;22.39;41.96;102687.38;5052675;27;96736;-36
2022/07/06 10:25:25;;;;;;;0.47;0.30;;;;;;;22.53;40.03;102678.81;5052454;27;101027;-35
2022/07/06 10:27:51;;;;;;;0.73;0.25;;;;;;;22.52;40.68;102685.34;5052409;27;100909;-35
2022/07/06 10:30:17;;;;;;;1.40;0.20;;;;;;;22.69;42.14;102678.38;5052617;27;96505;-35
2022/07/06 10:32:45;;;;;;;0.28;0.22;;;;;;;22.95;41.41;102664.25;5053520;27;96823;-35
2022/07/06 10:35:12;;;;;;;0.68;0.28;;;;;;;23.11;41.28;102673.91;5051734;27;101206;-35
2022/07/06 10:37:37;;;;;;;1.48;0.47;;;;;;;23.22;40.45;102673.00;5052085;27;101193;-35
2022/07/06 10:42:54;;;;;;;0.73;0.30;;;;;;;23.50;40.96;102673.31;5053987;27;96678;-35
2022/07/06 10:45:41;;;;;;;0.73;0.20;;;;;;;23.50;40.20;102659.50;5052200;27;101548;-36
2022/07/06 10:48:12;;;;;;;2.45;0.30;;;;;;;23.53;40.09;102667.53;5035285;27;101146;-35
2022/07/06 10:50:39;;;;;;;5.30;0.47;;;;;;;23.69;40.04;102670.72;5053240;27;98961;-35
2022/07/06 10:53:21;;;;;;;0.98;0.30;;;;;;;23.82;37.48;102664.13;5052303;27;96911;-35
2022/07/06 10:55:50;;;;;;;1.58;0.28;;;;;;;23.98;39.49;102667.28;5051959;27;101164;-35
2022/07/06 10:58:34;;;;;;;0.82;0.20;;;;;;;24.14;39.37;102675.91;5051502;27;101176;-36
2022/07/06 11:01:00;;;;;;;0.80;0.20;;;;;;;24.17;38.14;102660.94;5052786;27;96642;-35
2022/07/06 11:03:41;;;;;;;0.43;0.20;;;;;;;24.23;36.97;102659.50;5053514;27;96757;-36
2022/07/06 11:06:23;;;;;;;0.50;0.40;;;;;;;24.21;37.62;102656.84;5051782;27;101075;-36
2022/07/06 11:08:53;;;;;;;0.10;0.10;;;;;;;24.30;37.87;102653.25;5051785;27;100866;-36
2022/07/06 11:11:37;;;;;;;0.22;0.22;;;;;;;24.24;38.16;102655.69;5053109;27;96551;-36
2022/07/06 11:14:09;;;;;;;1.00;0.32;;;;;;;23.95;36.88;102639.84;5051772;27;97805;-35
2022/07/06 11:16:40;;;;;;;0.75;0.40;;;;;;;24.11;38.81;102642.97;5051614;27;101332;-36
2022/07/06 11:19:14;;;;;;;1.08;0.68;;;;;;;24.16;36.24;102635.13;5051929;27;101031;-35
2022/07/06 11:21:49;;;;;;;1.98;0.57;;;;;;;23.86;38.91;102637.91;5052815;27;96527;-36
2022/07/06 11:24:17;;;;;;;0.93;0.45;;;;;;;24.07;38.47;102633.19;5052987;27;96826;-36
2022/07/06 11:26:46;;;;;;;0.60;0.30;;;;;;;24.42;39.04;102619.91;5050997;27;99210;-36
2022/07/06 11:29:12;;;;;;;0.95;0.50;;;;;;;24.23;37.28;102615.19;5051435;27;100720;-36
2022/07/06 11:31:42;;;;;;;4.70;0.88;;;;;;;24.21;38.45;102618.09;5051617;27;96611;-36
2022/07/06 11:34:09;;;;;;;0.60;0.30;;;;;;;24.36;38.11;102619.47;5052676;27;96898;-36
2022/07/06 11:36:37;;;;;;;0.63;0.30;;;;;;;24.52;36.80;102616.16;5051171;27;101316;-36
2022/07/06 11:39:05;;;;;;;1.98;0.55;;;;;;;24.79;37.99;102611.84;5051228;27;101055;-36
2022/07/06 11:41:31;;;;;;;1.27;0.60;;;;;;;24.73;37.52;102609.63;5051465;27;96596;-36
2022/07/06 11:43:57;;;;;;;0.70;0.32;;;;;;;24.45;35.99;102606.63;5051768;27;96934;-36
2022/07/06 11:46:34;;;;;;;0.90;0.38;;;;;;;24.58;38.04;102609.19;5051239;27;100977;-36
2022/07/06 11:49:07;;;;;;;1.88;0.57;;;;;;;24.99;37.48;102613.56;5050932;27;101348;-36
2022/07/06 11:51:38;;;;;;;1.63;0.50;;;;;;;24.79;35.22;102600.75;5050785;27;96912;-36
2022/07/06 11:54:13;;;;;;;1.00;0.40;;;;;;;24.40;35.47;102605.31;5050913;27;97122;-36
2022/07/06 11:56:51;;;;;;;1.00;0.60;;;;;;;24.18;37.46;102601.75;5052545;27;98046;-36
2022/07/06 11:59:21;;;;;;;1.90;0.45;;;;;;;24.21;37.56;102611.69;5052152;27;99388;-36
2022/07/06 12:01:47;;;;;;;1.70;0.60;;;;;;;24.21;38.83;102615.31;5051221;27;96605;-36
2022/07/06 12:04:12;;;;;;;0.70;0.43;;;;;;;24.07;37.73;102601.84;5052448;27;96877;-36
2022/07/06 12:06:37;;;;;;;1.90;0.65;;;;;;;24.02;38.75;102607.81;5052106;27;99461;-36
2022/07/06 12:09:04;;;;;;;2.20;0.50;;;;;;;24.04;38.96;102607.69;5052423;27;97860;-36
2022/07/06 12:11:32;;;;;;;0.75;0.40;;;;;;;23.89;38.65;102609.97;5050485;27;96724;-36
2022/07/06 12:14:00;;;;;;;1.02;0.80;;;;;;;23.71;38.71;102602.25;5051061;27;96917;-36
2022/07/06 12:16:34;;;;;;;0.82;0.50;;;;;;;23.78;39.50;102607.28;5051174;27;98989;-36
2022/07/06 12:19:07;;;;;;;0.63;0.40;;;;;;;23.81;39.69;102599.59;5050674;27;101262;-36
2022/07/06 12:21:34;;;;;;;1.48;0.60;;;;;;;23.79;40.13;102597.94;5050950;27;96791;-36
2022/07/06 12:24:00;;;;;;;1.05;0.47;;;;;;;23.81;39.86;102607.91;5051010;27;96706;-36
2022/07/06 12:26:29;;;;;;;0.88;0.50;;;;;;;23.75;39.55;102605.66;5052094;27;97333;-36
2022/07/06 12:29:09;;;;;;;1.17;0.50;;;;;;;23.64;39.91;102611.25;5050479;27;100971;-36
2022/07/06 12:31:37;;;;;;;0.68;0.47;;;;;;;23.44;39.96;102604.72;5050765;27;96644;-36
2022/07/06 12:34:03;;;;;;;1.00;0.52;;;;;;;23.48;39.92;102595.16;5051029;27;96953;-36
2022/07/06 12:36:50;;;;;;;0.73;0.57;;;;;;;23.54;39.96;102597.34;5050465;27;100915;-36
2022/07/06 12:39:18;;;;;;;4.22;0.70;;;;;;;23.44;40.53;102599.19;5051838;27;99702;-36
2022/07/06 12:41:47;;;;;;;5.78;0.70;;;;;;;23.39;40.81;102591.31;5051528;27;96653;-36
2022/07/06 12:44:22;;;;;;;0.65;0.45;;;;;;;23.38;39.99;102596.97;5050499;27;97133;-36
2022/07/06 12:46:48;;;;;;;3.38;0.60;;;;;;;23.29;41.05;102588.47;5050334;27;101474;-36
2022/07/06 12:49:15;;;;;;;0.95;0.45;;;;;;;23.34;41.25;102595.50;5050489;27;101156;-36
2022/07/06 12:52:06;;;;;;;1.45;0.60;;;;;;;23.35;40.73;102572.34;5050604;27;96562;-36
2022/07/06 12:54:34;;;;;;;1.25;0.40;;;;;;;23.42;40.88;102574.44;5050467;27;96712;-36
2022/07/06 12:57:17;;;;;;;3.00;0.50;;;;;;;23.47;40.51;102582.31;5051727;27;98021;-36
2022/07/06 12:59:47;;;;;;;0.95;0.63;;;;;;;23.57;40.81;102580.47;5050616;27;100874;-36
2022/07/06 13:02:23;;;;;;;1.40;0.43;;;;;;;23.56;40.79;102572.34;5050404;27;96633;-36
2022/07/06 13:04:59;;;;;;;1.02;0.55;;;;;;;23.56;41.36;102580.63;5050382;27;96745;-36
2022/07/06 13:07:26;;;;;;;2.33;0.77;;;;;;;23.53;41.49;102566.06;5049752;27;101423;-36
2022/07/06 13:09:52;;;;;;;1.35;0.77;;;;;;;23.49;41.68;102552.63;5050136;27;101266;-36
2022/07/06 13:12:18;;;;;;;0.70;0.68;;;;;;;23.71;41.25;102568.16;5051724;27;96740;-36
2022/07/06 13:14:43;;;;;;;0.88;0.63;;;;;;;23.82;41.14;102572.78;5049887;27;96827;-36
2022/07/06 13:17:09;;;;;;;3.03;0.70;;;;;;;23.76;41.18;102568.66;5051500;27;97989;-36
2022/07/06 13:19:34;;;;;;;2.03;0.77;;;;;;;23.78;41.43;102582.38;5051474;27;98428;-36
2022/07/06 13:22:00;;;;;;;3.65;0.80;;;;;;;23.73;42.10;102578.13;5054065;27;96656;-36
2022/07/06 13:24:27;;;;;;;2.28;1.05;;;;;;;23.64;42.26;102578.91;5055377;27;96895;-36
2022/07/06 13:26:53;;;;;;;3.65;0.68;;;;;;;23.46;42.00;102575.91;5054363;27;99460;-36
2022/07/06 13:29:18;;;;;;;2.33;0.65;;;;;;;23.36;42.35;102574.09;5053427;27;101417;-36
2022/07/06 13:31:44;;;;;;;2.47;1.02;;;;;;;23.22;42.65;102573.44;5054417;27;96644;-36
2022/07/06 13:34:09;;;;;;;3.53;0.80;;;;;;;23.15;42.25;102565.84;5054052;27;110419;-36
2022/07/06 13:36:53;;;;;;;2.55;1.00;;;;;;;23.20;43.21;102575.47;5054237;27;99236;-36
2022/07/06 13:39:27;;;;;;;1.08;0.68;;;;;;;23.17;42.79;102559.16;5054421;27;97442;-36
2022/07/06 13:41:54;;;;;;;2.70;0.63;;;;;;;23.14;43.29;102558.53;5054827;27;96548;-36
2022/07/06 13:44:19;;;;;;;2.17;0.80;;;;;;;23.14;43.54;102545.56;5053253;27;96921;-36
2022/07/06 13:46:45;;;;;;;4.13;1.00;;;;;;;23.13;44.09;102543.84;5053606;27;127357;-36
2022/07/06 13:49:10;;;;;;;1.95;0.85;;;;;;;22.97;43.98;102548.91;5054676;27;99348;-36
2022/07/06 13:51:36;;;;;;;3.38;1.02;;;;;;;22.73;43.93;102544.50;5054445;27;96632;-36
2022/07/06 13:54:02;;;;;;;2.08;0.95;;;;;;;22.74;44.57;102546.28;5054133;27;96877;-36
2022/07/06 13:56:27;;;;;;;1.50;0.80;;;;;;;22.61;44.35;102548.34;5052288;27;99157;-36
2022/07/06 13:58:53;;;;;;;1.77;0.70;;;;;;;22.55;44.45;102555.28;5054304;27;97812;-36
2022/07/06 14:01:19;;;;;;;3.25;0.70;;;;;;;22.52;44.73;102549.13;5054556;27;96611;-36
2022/07/06 14:03:44;;;;;;;1.45;0.88;;;;;;;22.42;45.06;102566.47;5054173;27;96965;-36
2022/07/06 14:06:10;;;;;;;1.20;0.80;;;;;;;22.42;45.04;102551.78;5054257;27;97999;-36
2022/07/06 14:08:36;;;;;;;12.30;1.08;;;;;;;22.42;45.51;102552.66;5053580;27;99182;-36
2022/07/06 14:11:03;;;;;;;0.93;0.73;;;;;;;22.44;45.16;102555.31;5052788;27;96745;-36
2022/07/06 14:13:29;;;;;;;3.58;1.27;;;;;;;22.42;45.48;102544.38;5053197;27;96912;-36
2022/07/06 14:15:54;;;;;;;3.72;0.90;;;;;;;22.37;45.54;102541.13;5053539;27;98030;-36
2022/07/06 14:18:20;;;;;;;2.22;0.95;;;;;;;22.34;45.57;102530.38;5052566;27;98975;-36
2022/07/06 14:20:48;;;;;;;2.17;0.82;;;;;;;22.37;45.21;102535.63;5053425;27;96628;-36
2022/07/06 14:23:14;;;;;;;1.83;0.65;;;;;;;22.43;45.38;102526.81;5053841;27;96800;-36
2022/07/06 14:25:41;;;;;;;2.42;0.98;;;;;;;22.46;45.60;102523.78;5052314;27;100925;-36
2022/07/06 14:28:07;;;;;;;1.58;0.85;;;;;;;22.43;45.46;102545.28;5052358;27;100855;-35
2022/07/06 14:30:36;;;;;;;3.80;0.82;;;;;;;22.45;45.75;102537.72;5052743;27;96616;-35
2022/07/06 14:33:01;;;;;;;2.22;0.95;;;;;;;22.39;45.44;102535.50;5052857;27;96817;-36
2022/07/06 14:35:27;;;;;;;2.58;0.90;;;;;;;22.32;45.76;102524.09;5053905;27;97473;-36
2022/07/06 14:37:52;;;;;;;2.13;1.05;;;;;;;22.36;46.04;102524.72;5053785;27;99299;-36
2022/07/06 14:40:18;;;;;;;0.63;0.52;;;;;;;22.39;46.46;102525.31;5053476;27;107922;-36
2022/07/06 14:42:43;;;;;;;1.23;0.73;;;;;;;22.40;46.06;102521.53;5053819;27;96914;-35
2022/07/06 14:45:09;;;;;;;3.05;0.60;;;;;;;22.38;45.90;102533.72;5052189;27;126599;-36
2022/07/06 14:47:35;;;;;;;1.80;0.80;;;;;;;22.36;46.10;102530.25;5053676;27;97931;-35
2022/07/06 14:50:01;;;;;;;1.50;0.88;;;;;;;22.34;46.06;102529.50;5053547;27;96600;-36
2022/07/06 14:52:26;;;;;;;2.30;0.90;;;;;;;22.25;46.24;102528.38;5053915;27;96787;-36
2022/07/06 14:54:51;;;;;;;2.63;1.10;;;;;;;22.33;46.22;102519.44;5052422;27;118875;-36
2022/07/06 14:57:17;;;;;;;3.65;0.73;;;;;;;22.31;45.63;102505.78;5053345;27;97853;-36
2022/07/06 14:59:42;;;;;;;4.40;1.10;;;;;;;22.30;46.20;102528.00;5052838;27;112712;-36
2022/07/06 15:02:07;;;;;;;1.98;1.00;;;;;;;22.19;45.92;102515.94;5053520;27;104608;-36
2022/07/06 15:04:33;;;;;;;3.65;1.35;;;;;;;22.25;46.08;102517.34;5053096;27;98939;-36
2022/07/06 15:06:59;;;;;;;7.13;1.08;;;;;;;22.19;45.96;102521.47;5053123;27;100191;-36
2022/07/06 15:09:26;;;;;;;3.28;1.10;;;;;;;22.20;46.00;102494.72;5052943;27;96639;-36
2022/07/06 15:11:52;;;;;;;3.78;0.85;;;;;;;22.34;45.88;102515.69;5051799;27;96966;-36
2022/07/06 15:14:18;;;;;;;3.42;0.82;;;;;;;22.27;45.89;102501.53;5052606;27;99842;-36
2022/07/06 15:16:44;;;;;;;2.33;1.10;;;;;;;22.30;46.09;102500.38;5053035;27;98987;-36
2022/07/06 15:19:09;;;;;;;2.83;1.20;;;;;;;22.32;45.53;102513.03;5053286;27;96562;-36
2022/07/06 15:21:34;;;;;;;1.20;0.82;;;;;;;22.26;45.41;102508.94;5052838;27;96808;-36
2022/07/06 15:24:00;;;;;;;1.75;1.02;;;;;;;22.23;45.63;102513.81;5052802;27;104833;-36
2022/07/06 15:26:25;;;;;;;4.63;1.40;;;;;;;22.25;45.77;102511.81;5053094;27;106849;-36
2022/07/06 15:28:50;;;;;;;3.10;0.85;;;;;;;22.19;45.55;102485.59;5052982;27;96582;-36
2022/07/06 15:31:16;;;;;;;1.10;0.82;;;;;;;22.25;45.30;102511.81;5052139;27;119134;-36
2022/07/06 15:33:41;;;;;;;2.33;1.15;;;;;;;22.22;45.52;102514.84;5051007;27;98007;-36
2022/07/06 15:36:07;;;;;;;1.85;0.90;;;;;;;22.12;45.97;102500.00;5052710;27;97805;-36
2022/07/06 15:38:34;;;;;;;1.58;0.80;;;;;;;21.98;45.73;102484.63;5052994;27;96730;-36
2022/07/06 15:41:02;;;;;;;2.22;1.20;;;;;;;22.01;46.38;102492.66;5052824;27;96777;-36
2022/07/06 15:43:29;;;;;;;0.70;0.68;;;;;;;21.87;46.09;102477.25;5051263;27;101229;-36
2022/07/06 15:45:56;;;;;;;2.58;0.93;;;;;;;21.90;46.45;102496.28;5051454;27;97867;-36
2022/07/06 15:48:21;;;;;;;2.58;0.82;;;;;;;21.88;46.75;102491.91;5051103;27;96564;-36
2022/07/06 15:50:46;;;;;;;1.92;0.77;;;;;;;21.87;45.91;102493.81;5052517;27;105875;-36
2022/07/06 15:53:12;;;;;;;1.25;0.60;;;;;;;21.77;46.26;102501.09;5052188;27;105883;-36
2022/07/06 15:55:37;;;;;;;1.65;0.80;;;;;;;21.67;46.81;102487.19;5052522;27;97278;-36
2022/07/06 15:58:03;;;;;;;2.40;0.75;;;;;;;21.68;46.83;102480.66;5052220;27;96498;-36
2022/07/06 16:00:28;;;;;;;2.20;0.52;;;;;;;21.72;47.05;102476.66;5052981;27;96787;-36
2022/07/06 16:02:53;;;;;;;1.33;0.70;;;;;;;21.72;46.99;102473.91;5052319;27;99236;-36
2022/07/06 16:05:21;;;;;;;1.83;1.00;;;;;;;21.75;46.91;102465.34;5051024;27;99337;-36
2022/07/06 16:07:47;;;;;;;5.45;1.25;;;;;;;21.69;47.50;102459.47;5051152;27;96641;-36
2022/07/06 16:10:24;;;;;;;5.68;0.80;;;;;;;21.63;47.38;102455.34;5052691;27;96505;-36
2022/07/06 16:12:51;;;;;;;1.98;1.05;;;;;;;21.57;47.89;102462.25;5052182;27;99331;-36
2022/07/06 16:15:17;;;;;;;0.38;0.35;;;;;;;21.53;48.47;102459.88;5050483;27;99511;-35
2022/07/06 16:17:43;;;;;;;1.10;0.60;;;;;;;21.47;48.53;102455.72;5051920;27;96693;-36
2022/07/06 16:20:09;;;;;;;1.20;0.68;;;;;;;21.45;48.88;102452.22;5052496;27;96704;-36
2022/07/06 16:22:34;;;;;;;1.35;0.50;;;;;;;21.41;48.49;102445.22;5050115;27;101159;-36
2022/07/06 16:25:00;;;;;;;2.67;0.90;;;;;;;21.43;48.76;102454.25;5052509;27;97112;-36
2022/07/06 16:27:25;;;;;;;0.40;0.38;;;;;;;21.37;48.57;102440.91;5052448;27;96589;-36
2022/07/06 16:29:50;;;;;;;1.20;0.60;;;;;;;21.37;49.54;102443.69;5052377;27;96602;-36
2022/07/06 16:32:16;;;;;;;0.65;0.55;;;;;;;21.35;49.10;102432.75;5051134;27;115478;-36
2022/07/06 16:34:41;;;;;;;2.20;0.70;;;;;;;21.39;50.03;102450.84;5051738;27;98024;-36
2022/07/06 16:37:06;;;;;;;1.10;0.50;;;;;;;21.36;50.04;102439.19;5051961;27;101105;-35
2022/07/06 16:39:34;;;;;;;3.80;0.70;;;;;;;21.31;50.07;102438.66;5052615;27;103184;-36
2022/07/06 16:41:59;;;;;;;1.45;0.60;;;;;;;21.29;50.25;102432.41;5051899;27;97424;-36